Time;durP1;ratioP1;P1;durP2;ratioP2;P2;SDS_P1;SDS_P2;PMS_P1;PMS_P2;Temp;Humidity;BMP_temperature;BMP_pressure;BME280_temperature;BME280_humidity;BME280_pressure;Samples;Min_cycle;Max_cycle;Signal;HPM_P1;HPM_P2
2022/09/13 00:00:16;;;;;;;;;;;;;;;18.48;63.60;99675.84;6307233;22;20003;-75
2022/09/13 00:02:41;;;;;;;3.17;1.27;;;;;;;18.51;63.52;99672.28;6307070;22;19929;-76
2022/09/13 00:05:06;;;;;;;;;;;;;;;18.50;63.49;99674.25;6307504;22;20218;-75
2022/09/13 00:07:32;;;;;;;2.92;1.20;;;;;;;18.47;63.73;99660.47;6306055;22;19981;-76
2022/09/13 00:09:57;;;;;;;;;;;;;;;18.46;63.73;99648.66;6307108;22;20363;-76
2022/09/13 00:12:22;;;;;;;4.97;1.67;;;;;;;18.43;63.88;99651.44;6279041;22;19935;-76
2022/09/13 00:14:47;;;;;;;;;;;;;;;18.43;63.81;99649.47;6307332;22;20456;-75
2022/09/13 00:17:13;;;;;;;3.93;1.63;;;;;;;18.42;63.91;99642.38;6306472;22;19922;-76
2022/09/13 00:19:38;;;;;;;;;;;;;;;18.41;64.14;99648.28;6306772;22;20054;-75
2022/09/13 00:22:05;;;;;;;2.87;1.30;;;;;;;18.43;63.87;99645.91;6306463;22;19903;-77
2022/09/13 00:24:32;;;;;;;3.10;1.40;;;;;;;18.41;63.85;99648.28;6306601;22;20007;-79
2022/09/13 00:26:58;;;;;;;3.95;1.50;;;;;;;18.41;63.88;99629.78;6306178;22;19995;-77
2022/09/13 00:29:24;;;;;;;3.75;1.45;;;;;;;18.43;63.79;99629.38;6306354;22;20105;-76
2022/09/13 00:31:49;;;;;;;;;;;;;;;18.44;63.85;99630.94;6306704;22;20007;-76
2022/09/13 00:34:14;;;;;;;3.73;1.40;;;;;;;18.44;63.87;99625.44;6306390;22;19956;-78
2022/09/13 00:36:39;;;;;;;;;;;;;;;18.43;63.81;99632.13;6306796;22;20226;-75
2022/09/13 00:39:05;;;;;;;2.03;1.00;;;;;;;18.43;64.02;99632.13;6306164;22;19947;-76
2022/09/13 00:41:30;;;;;;;;;;;;;;;18.46;63.59;99628.56;6305924;22;20214;-77
2022/09/13 00:43:58;;;;;;;4.27;1.43;;;;;;;18.49;63.68;99630.56;6306208;22;19903;-77
2022/09/13 00:46:32;;;;;;;2.85;1.25;;;;;;;18.58;63.15;99628.13;6306224;22;20222;-78
2022/09/13 00:49:06;;;;;;;2.78;1.30;;;;;;;18.54;63.39;99625.41;6306864;22;20049;-76
2022/09/13 00:51:32;;;;;;;2.88;1.40;;;;;;;18.55;63.10;99628.94;6305869;22;20146;-76
2022/09/13 00:53:58;;;;;;;2.60;1.10;;;;;;;18.58;63.02;99625.38;6306730;22;20466;-77
2022/09/13 00:56:38;;;;;;;5.18;1.20;;;;;;;18.60;62.91;99628.53;6278823;22;20420;-78
2022/09/13 00:59:12;;;;;;;3.72;1.38;;;;;;;18.61;62.78;99624.56;6306217;22;20385;-78
2022/09/13 01:01:53;;;;;;;4.40;1.52;;;;;;;18.63;62.82;99633.25;6306351;22;19995;-78
2022/09/13 01:04:21;;;;;;;3.70;1.30;;;;;;;18.60;62.99;99623.78;6306357;22;20008;-76
2022/09/13 01:06:49;;;;;;;4.65;1.40;;;;;;;18.60;62.89;99623.78;6306037;22;20443;-77
2022/09/13 01:09:14;;;;;;;3.10;1.17;;;;;;;18.61;62.89;99619.06;6306103;22;20003;-78
2022/09/13 01:11:46;;;;;;;3.10;1.33;;;;;;;18.58;63.03;99620.66;6306002;22;20011;-76
2022/09/13 01:14:12;;;;;;;2.60;1.15;;;;;;;18.57;63.13;99610.03;6279048;22;20026;-76
2022/09/13 01:16:38;;;;;;;3.20;1.20;;;;;;;18.53;63.23;99607.28;6306169;22;20073;-78
2022/09/13 01:19:03;;;;;;;3.33;1.45;;;;;;;18.53;63.31;99618.31;6306204;22;20007;-78
2022/09/13 01:21:47;;;;;;;;;;;;;;;18.49;63.49;99617.56;6306689;22;20351;-79
2022/09/13 01:24:31;;;;;;;3.35;1.30;;;;;;;18.50;63.22;99610.06;6306013;22;19913;-78
2022/09/13 01:27:15;;;;;;;2.95;1.30;;;;;;;18.50;63.17;99613.63;6278749;22;20396;-77
2022/09/13 01:30:01;;;;;;;2.58;1.15;;;;;;;18.47;63.31;99608.09;6305937;22;20003;-77
2022/09/13 01:32:35;;;;;;;3.25;1.40;;;;;;;18.42;63.48;99601.03;6305729;22;20486;-78
2022/09/13 01:35:22;;;;;;;3.15;1.40;;;;;;;18.39;63.83;99609.31;6306085;22;19999;-76
2022/09/13 01:38:03;;;;;;;;;;;;;;;18.41;63.64;99604.19;6279087;22;20007;-76
2022/09/13 01:40:54;;;;;;;3.20;1.40;;;;;;;18.38;63.84;99602.25;6305978;22;19977;-76
2022/09/13 01:43:37;;;;;;;2.90;1.25;;;;;;;18.31;63.93;99601.09;6306240;22;20076;-78
2022/09/13 01:46:08;;;;;;;4.40;1.48;;;;;;;18.30;63.98;99602.25;6305899;22;20010;-77
2022/09/13 01:48:52;;;;;;;4.35;1.58;;;;;;;18.36;63.95;99597.13;6305894;22;20006;-77
2022/09/13 01:51:25;;;;;;;2.78;1.23;;;;;;;18.31;64.06;99603.84;6305798;22;20057;-77
2022/09/13 01:54:20;;;;;;;2.90;1.13;;;;;;;18.28;64.28;99596.34;6307130;22;20049;-76
2022/09/13 01:57:06;;;;;;;3.58;1.33;;;;;;;18.29;64.13;99597.13;6307635;22;20421;-76
2022/09/13 01:59:46;;;;;;;3.28;1.33;;;;;;;18.29;64.07;99597.91;6280162;22;20014;-75
2022/09/13 02:02:35;;;;;;;2.60;1.25;;;;;;;18.27;64.54;99605.03;6280012;22;20416;-76
2022/09/13 02:05:47;;;;;;;3.78;1.40;;;;;;;18.30;64.38;99604.22;6307587;22;20375;-75
2022/09/13 02:08:42;;;;;;;2.92;1.20;;;;;;;18.25;64.29;99601.88;6233862;22;20011;-75
2022/09/13 02:11:09;;;;;;;3.35;1.20;;;;;;;18.23;64.56;99599.53;6307444;22;20442;-75
2022/09/13 02:14:15;;;;;;;3.78;1.63;;;;;;;18.21;64.59;99599.13;6307412;22;20459;-75
2022/09/13 02:16:49;;;;;;;3.90;1.60;;;;;;;18.24;64.98;99600.31;6177296;22;20020;-75
2022/09/13 02:19:24;;;;;;;3.78;1.40;;;;;;;18.18;64.89;99602.69;6276738;22;20010;-76
2022/09/13 02:21:55;;;;;;;3.90;1.85;;;;;;;18.18;65.00;99601.91;6276559;22;20000;-76
2022/09/13 02:24:28;;;;;;;5.22;1.80;;;;;;;18.18;65.19;99601.91;6276674;22;20054;-75
2022/09/13 02:26:58;;;;;;;3.83;1.30;;;;;;;18.19;64.81;99603.47;6276513;22;20356;-75
2022/09/13 02:29:27;;;;;;;4.43;1.45;;;;;;;18.18;65.05;99610.97;6276768;22;20006;-76
2022/09/13 02:32:04;;;;;;;3.00;1.40;;;;;;;18.21;64.57;99601.13;6276467;22;20004;-75
2022/09/13 02:34:37;;;;;;;2.53;1.10;;;;;;;18.20;64.53;99597.56;6276417;22;20004;-75
2022/09/13 02:37:07;;;;;;;3.40;1.42;;;;;;;18.22;64.79;99608.19;6276422;22;20007;-75
2022/09/13 02:39:36;;;;;;;4.30;1.60;;;;;;;18.19;64.75;99598.75;6276551;22;20447;-76
2022/09/13 02:42:01;;;;;;;3.65;1.50;;;;;;;18.20;64.92;99594.81;6276555;22;19992;-76
2022/09/13 02:44:39;;;;;;;3.28;1.15;;;;;;;18.19;64.73;99596.00;6276485;22;20000;-76
2022/09/13 02:47:07;;;;;;;3.45;1.13;;;;;;;18.30;64.51;99585.72;6276476;22;19999;-76
2022/09/13 02:49:54;;;;;;;3.70;1.40;;;;;;;18.29;64.43;99583.34;6276438;22;20007;-75
2022/09/13 02:52:22;;;;;;;5.28;1.92;;;;;;;18.22;64.59;99581.41;6276646;22;20000;-74
2022/09/13 02:55:04;;;;;;;3.92;1.30;;;;;;;18.22;64.68;99586.16;6276669;22;20007;-75
2022/09/13 02:57:39;;;;;;;4.65;1.83;;;;;;;18.22;64.94;99583.41;6276207;22;20444;-74
2022/09/13 03:00:05;;;;;;;3.92;1.48;;;;;;;18.21;65.06;99588.13;6275838;22;20000;-74
2022/09/13 03:02:32;;;;;;;4.05;1.52;;;;;;;18.19;64.93;99587.72;6274572;22;20053;-76
2022/09/13 03:05:00;;;;;;;2.75;1.17;;;;;;;18.18;64.81;99597.19;6275665;22;20006;-75
2022/09/13 03:07:26;;;;;;;4.63;1.75;;;;;;;18.21;64.89;99598.34;6276072;22;20004;-74
2022/09/13 03:10:00;;;;;;;2.92;1.30;;;;;;;18.16;65.33;99605.06;6276148;22;20057;-75
2022/09/13 03:12:43;;;;;;;3.88;1.30;;;;;;;18.17;65.21;99598.38;6276445;22;20065;-74
2022/09/13 03:15:36;;;;;;;3.50;1.23;;;;;;;18.12;65.58;99601.50;6280027;22;20007;-74
2022/09/13 03:18:11;;;;;;;5.13;1.45;;;;;;;18.12;65.56;99607.03;6306993;22;20052;-74
2022/09/13 03:21:01;;;;;;;2.85;1.23;;;;;;;18.10;65.63;99606.63;6306964;22;20003;-75
2022/09/13 03:23:26;;;;;;;2.97;1.20;;;;;;;18.10;65.52;99606.63;6306995;22;20014;-74
2022/09/13 03:26:10;;;;;;;;;;;;;;;18.08;65.92;99613.72;6307415;22;20187;-74
2022/09/13 03:29:00;;;;;;;2.90;1.13;;;;;;;18.00;67.29;99608.25;6306893;22;19903;-74
2022/09/13 03:31:40;;;;;;;2.83;1.30;;;;;;;17.95;67.90;99600.38;6306654;22;20019;-75
2022/09/13 03:34:34;;;;;;;4.22;1.52;;;;;;;17.85;69.38;99600.41;6306987;22;20078;-74
2022/09/13 03:37:26;;;;;;;3.42;1.50;;;;;;;17.72;69.72;99600.81;6262180;22;20007;-74
2022/09/13 03:40:13;;;;;;;3.60;1.63;;;;;;;17.62;71.04;99606.28;6306803;22;20420;-75
2022/09/13 03:42:51;;;;;;;5.65;1.73;;;;;;;17.53;71.91;99601.19;6299489;22;20011;-76
2022/09/13 03:45:22;;;;;;;3.50;1.60;;;;;;;17.47;72.57;99597.28;6279506;22;20007;-76
2022/09/13 03:47:49;;;;;;;3.42;1.42;;;;;;;17.38;73.27;99594.91;6306581;22;20009;-75
2022/09/13 03:50:19;;;;;;;3.88;1.60;;;;;;;17.32;73.77;99585.47;6279258;22;20033;-76
2022/09/13 03:52:46;;;;;;;2.85;1.30;;;;;;;17.27;73.96;99594.09;6306034;22;19999;-75
2022/09/13 03:55:11;;;;;;;3.95;1.67;;;;;;;17.24;73.76;99589.38;6307057;22;20010;-75
2022/09/13 03:57:36;;;;;;;;;;;;;;;17.21;74.06;99583.88;6307008;22;20003;-74
2022/09/13 04:00:03;;;;;;;4.03;1.47;;;;;;;17.20;74.57;99583.09;6306326;22;19907;-74
2022/09/13 04:02:28;;;;;;;4.25;1.30;;;;;;;17.20;74.97;99582.31;6305615;22;20064;-75
2022/09/13 04:04:53;;;;;;;;;;;;;;;17.21;75.40;99587.44;6307058;22;20011;-75
2022/09/13 04:07:22;;;;;;;4.43;1.80;;;;;;;17.23;74.72;99579.56;6279015;22;20004;-75
2022/09/13 04:09:47;;;;;;;4.45;1.52;;;;;;;17.23;74.93;99579.56;6306572;22;20406;-75
2022/09/13 04:12:14;;;;;;;;;;;;;;;17.24;74.75;99583.09;6307466;22;20106;-75
2022/09/13 04:14:40;;;;;;;4.32;1.75;;;;;;;17.23;74.48;99576.03;6306570;22;19952;-75
2022/09/13 04:17:06;;;;;;;3.70;1.65;;;;;;;17.23;75.00;99579.56;6306185;22;20032;-74
2022/09/13 04:19:32;;;;;;;;;;;;;;;17.21;74.94;99572.88;6306764;22;20344;-74
2022/09/13 04:21:57;;;;;;;4.00;1.50;;;;;;;17.22;74.91;99575.25;6279368;22;19914;-75
2022/09/13 04:24:24;;;;;;;;;;;;;;;17.25;74.37;99577.19;6306850;22;20010;-74
2022/09/13 04:26:52;;;;;;;3.22;1.33;;;;;;;17.25;74.78;99571.69;6306153;22;19903;-74
2022/09/13 04:29:18;;;;;;;3.28;1.33;;;;;;;17.24;74.59;99572.09;6306486;22;20017;-74
2022/09/13 04:31:44;;;;;;;;;;;;;;;17.24;74.61;99572.88;6307052;22;19999;-74
2022/09/13 04:34:09;;;;;;;4.00;1.83;;;;;;;17.25;74.18;99568.94;6306526;22;19913;-75
2022/09/13 04:36:34;;;;;;;;;;;;;;;17.25;74.68;99581.91;6306742;22;20069;-74
2022/09/13 04:38:59;;;;;;;3.70;1.33;;;;;;;17.30;74.26;99582.34;6305948;22;19903;-75
2022/09/13 04:41:25;;;;;;;;;;;;;;;17.30;74.28;99581.53;6306990;22;20210;-74
2022/09/13 04:43:50;;;;;;;4.15;1.40;;;;;;;17.28;74.39;99578.38;6306473;22;19903;-75
2022/09/13 04:46:16;;;;;;;;;;;;;;;17.31;74.40;99589.41;6305991;22;20010;-75
2022/09/13 04:48:42;;;;;;;3.88;1.63;;;;;;;17.31;74.34;99596.88;6305912;22;19925;-75
2022/09/13 04:51:07;;;;;;;;;;;;;;;17.31;74.37;99594.13;6306750;22;19999;-74
2022/09/13 04:53:33;;;;;;;2.38;1.02;;;;;;;17.34;73.67;99587.84;6278832;22;19945;-76
2022/09/13 04:56:02;;;;;;;;;;;;;;;17.34;73.63;99598.84;6305454;22;20022;-75
2022/09/13 04:58:27;;;;;;;3.88;1.42;;;;;;;17.35;73.83;99600.41;6305858;22;19982;-75
2022/09/13 05:00:55;;;;;;;;;;;;;;;17.36;73.49;99601.97;6306652;22;20030;-74
2022/09/13 05:03:21;;;;;;;2.78;1.40;;;;;;;17.36;73.19;99597.25;6306256;22;19991;-75
2022/09/13 05:05:46;;;;;;;;;;;;;;;17.36;73.48;99602.75;6306931;22;20019;-75
2022/09/13 05:08:12;;;;;;;3.47;1.43;;;;;;;17.34;73.81;99598.84;6306453;22;19914;-76
2022/09/13 05:10:37;;;;;;;;;;;;;;;17.36;73.32;99588.22;6306730;22;20229;-76
2022/09/13 05:13:03;;;;;;;3.20;1.38;;;;;;;17.40;72.77;99586.25;6305696;22;19956;-75
2022/09/13 05:15:28;;;;;;;;;;;;;;;17.41;72.94;99596.84;6273740;22;20495;-75
2022/09/13 05:17:53;;;;;;;3.33;1.23;;;;;;;17.41;72.90;99593.31;6273421;22;19914;-75
2022/09/13 05:20:18;;;;;;;;;;;;;;;17.41;72.80;99596.06;6275581;22;20284;-75
2022/09/13 05:22:44;;;;;;;3.08;1.42;;;;;;;17.43;72.58;99588.22;6275329;22;19904;-76
2022/09/13 05:25:09;;;;;;;;;;;;;;;17.45;72.75;99599.59;6273840;22;20313;-75
2022/09/13 05:27:34;;;;;;;3.83;1.40;;;;;;;17.44;72.49;99592.53;6275351;22;20329;-75
2022/09/13 05:29:59;;;;;;;;;;;;;;;17.47;72.61;99597.28;6277523;22;20525;-75
2022/09/13 05:32:25;;;;;;;6.32;1.90;;;;;;;17.52;72.17;99599.63;6277092;22;19990;-76
2022/09/13 05:34:50;;;;;;;;;;;;;;;17.52;72.10;99594.13;6277566;22;20500;-75
2022/09/13 05:37:15;;;;;;;2.80;1.40;;;;;;;17.56;71.70;99597.66;6275213;22;19952;-76
2022/09/13 05:39:41;;;;;;;;;;;;;;;17.59;71.59;99596.84;6277320;22;20003;-76
2022/09/13 05:42:06;;;;;;;3.93;2.13;;;;;;;17.61;71.60;99596.47;6276996;22;19946;-76
2022/09/13 05:44:31;;;;;;;;;;;;;;;17.63;71.59;99602.34;6275414;22;20227;-76
2022/09/13 05:46:57;;;;;;;5.27;1.60;;;;;;;17.65;71.15;99600.81;6275248;22;20309;-76
2022/09/13 05:49:22;;;;;;;;;;;;;;;17.65;71.44;99598.06;6277748;22;20417;-76
2022/09/13 05:51:47;;;;;;;3.17;1.23;;;;;;;17.69;71.13;99612.63;6276868;22;19913;-76
2022/09/13 05:54:12;;;;;;;;;;;;;;;17.69;71.50;99612.63;6277346;22;20070;-75
2022/09/13 05:56:38;;;;;;;3.10;1.27;;;;;;;17.72;71.30;99616.56;6275019;22;19907;-75
2022/09/13 05:59:03;;;;;;;;;;;;;;;17.76;70.77;99613.78;6276965;22;20683;-76
2022/09/13 06:01:28;;;;;;;4.40;1.77;;;;;;;17.77;70.79;99620.88;6276963;22;19969;-77
2022/09/13 06:03:55;;;;;;;;;;;;;;;17.77;70.86;99620.88;6277752;22;19995;-76
2022/09/13 06:06:22;;;;;;;3.60;1.60;;;;;;;17.76;70.58;99614.56;6275003;22;19981;-74
2022/09/13 06:08:51;;;;;;;2.88;1.33;;;;;;;17.84;70.73;99618.13;6276151;22;20218;-76
2022/09/13 06:11:16;;;;;;;3.97;1.58;;;;;;;17.77;70.76;99613.38;6276643;22;20043;-77
2022/09/13 06:13:42;;;;;;;;;;;;;;;17.77;70.89;99620.88;6277159;22;20023;-76
2022/09/13 06:16:10;;;;;;;3.28;1.48;;;;;;;17.72;71.06;99619.31;6293238;22;19911;-76
2022/09/13 06:18:35;;;;;;;4.10;1.80;;;;;;;17.74;71.12;99620.47;6307569;22;20003;-76
2022/09/13 06:21:20;;;;;;;;;;;;;;;17.77;70.89;99616.16;6307403;22;20060;-76
2022/09/13 06:23:47;;;;;;;3.28;1.38;;;;;;;17.78;71.02;99617.72;6280446;22;19910;-76
2022/09/13 06:26:15;;;;;;;4.40;1.80;;;;;;;17.81;70.57;99621.66;6307521;22;20451;-76
2022/09/13 06:28:41;;;;;;;3.42;1.63;;;;;;;17.80;70.41;99620.06;6307504;22;20443;-77
2022/09/13 06:31:08;;;;;;;;;;;;;;;17.80;70.38;99614.56;6307539;22;19999;-76
2022/09/13 06:33:35;;;;;;;3.40;1.27;;;;;;;17.80;70.60;99617.31;6306898;22;19925;-76
2022/09/13 06:36:02;;;;;;;3.47;1.48;;;;;;;17.80;70.36;99609.06;6306672;22;20338;-76
2022/09/13 06:38:28;;;;;;;3.25;1.50;;;;;;;17.81;70.57;99611.44;6279004;22;20007;-76
2022/09/13 06:41:03;;;;;;;;;;;;;;;17.83;70.68;99611.81;6308021;22;20370;-76
2022/09/13 06:43:29;;;;;;;5.15;1.52;;;;;;;17.84;70.45;99615.38;6307284;22;19911;-76
2022/09/13 06:45:58;;;;;;;;;;;;;;;17.85;70.52;99623.22;6279793;22;20313;-76
2022/09/13 06:48:23;;;;;;;3.15;1.50;;;;;;;17.96;70.63;99618.47;6279221;22;20240;-76
2022/09/13 06:50:48;;;;;;;;;;;;;;;18.07;69.98;99623.19;6279965;22;20400;-76
2022/09/13 06:53:13;;;;;;;3.50;1.60;;;;;;;17.99;69.95;99616.91;6306960;22;19907;-77
2022/09/13 06:55:39;;;;;;;;;;;;;;;18.03;69.79;99617.69;6307591;22;20052;-76
2022/09/13 06:58:04;;;;;;;3.50;1.20;;;;;;;18.06;69.87;99625.16;6306828;22;20213;-76
2022/09/13 07:00:29;;;;;;;;;;;;;;;18.16;69.55;99621.59;6280140;22;20041;-76
2022/09/13 07:02:55;;;;;;;3.03;1.33;;;;;;;18.16;69.26;99624.34;6279460;22;19909;-76
2022/09/13 07:05:20;;;;;;;;;;;;;;;18.15;69.06;99620.03;6307322;22;20450;-76
2022/09/13 07:07:46;;;;;;;5.93;1.60;;;;;;;18.19;69.10;99615.28;6306957;22;19903;-76
2022/09/13 07:10:11;;;;;;;;;;;;;;;18.32;69.08;99623.91;6279891;22;20010;-76
2022/09/13 07:12:40;;;;;;;3.70;1.53;;;;;;;18.33;68.83;99626.28;6306777;22;19938;-77
2022/09/13 07:15:05;;;;;;;3.60;1.60;;;;;;;18.35;69.07;99612.09;6279125;22;20295;-77
2022/09/13 07:17:31;;;;;;;2.83;1.55;;;;;;;18.35;69.25;99612.09;6306959;22;20424;-77
2022/09/13 07:19:56;;;;;;;;;;;;;;;18.43;68.67;99618.34;6279983;22;20286;-78
2022/09/13 07:22:25;;;;;;;2.97;1.37;;;;;;;18.46;68.67;99623.06;6306921;22;19902;-77
2022/09/13 07:24:51;;;;;;;3.63;1.40;;;;;;;18.50;68.67;99615.59;6306663;22;19999;-77
2022/09/13 07:27:16;;;;;;;4.07;1.40;;;;;;;18.55;68.48;99617.91;6306710;22;20010;-78
2022/09/13 07:29:41;;;;;;;;;;;;;;;18.64;68.26;99621.03;6279834;22;20033;-77
2022/09/13 07:32:07;;;;;;;5.43;2.53;;;;;;;18.73;68.13;99618.66;6278796;22;19933;-78
2022/09/13 07:34:32;;;;;;;;;;;;;;;18.81;67.97;99622.16;6279522;22;20241;-77
2022/09/13 07:36:57;;;;;;;3.63;1.57;;;;;;;18.87;67.61;99621.34;6279009;22;19907;-77
2022/09/13 07:39:23;;;;;;;;;;;;;;;18.86;67.86;99611.50;6307333;22;20230;-76
2022/09/13 07:41:49;;;;;;;4.25;1.65;;;;;;;18.89;67.68;99612.66;6279163;22;19903;-78
2022/09/13 07:44:14;;;;;;;;;;;;;;;19.01;67.44;99625.22;6279204;22;20064;-77
2022/09/13 07:46:40;;;;;;;3.97;1.63;;;;;;;19.08;67.59;99619.63;6306285;22;19991;-76
2022/09/13 07:49:06;;;;;;;3.72;1.63;;;;;;;19.12;67.63;99631.44;6306607;22;20241;-77
2022/09/13 07:51:34;;;;;;;4.88;1.92;;;;;;;19.07;68.01;99629.09;6305624;22;20421;-77
2022/09/13 07:54:02;;;;;;;4.05;1.70;;;;;;;19.15;67.78;99630.66;6306646;22;20082;-78
2022/09/13 07:56:30;;;;;;;3.72;1.45;;;;;;;19.11;67.65;99630.66;6306606;22;20007;-77
2022/09/13 07:58:59;;;;;;;5.25;1.73;;;;;;;19.17;67.00;99633.78;6306514;22;19999;-77
2022/09/13 08:01:27;;;;;;;6.78;2.22;;;;;;;19.20;67.48;99632.97;6306458;22;20000;-78
2022/09/13 08:03:58;;;;;;;4.68;1.80;;;;;;;19.23;67.62;99637.69;6306083;22;20002;-78
2022/09/13 08:06:27;;;;;;;4.28;1.85;;;;;;;19.30;67.54;99625.78;6278933;22;20003;-78
2022/09/13 08:08:53;;;;;;;6.75;2.78;;;;;;;19.36;67.34;99636.00;6279566;22;20010;-79
2022/09/13 08:11:21;;;;;;;5.28;2.22;;;;;;;19.31;67.38;99641.94;6305897;22;20353;-77
2022/09/13 08:38:03;;;;;;;4.85;1.90;;;;;;;19.84;66.43;99649.06;6158689;22;20030;-79
2022/09/13 08:40:39;;;;;;;5.20;2.10;;;;;;;19.92;66.18;99645.03;6275221;22;20022;-78
2022/09/13 08:43:30;;;;;;;5.28;2.20;;;;;;;19.99;65.89;99650.50;6221902;22;20016;-78
2022/09/13 08:46:01;;;;;;;5.72;2.72;;;;;;;20.16;65.66;99642.47;6274916;22;20011;-78
2022/09/13 08:48:35;;;;;;;5.25;2.30;;;;;;;20.26;66.04;99639.56;6275227;22;20003;-78
2022/09/13 08:51:10;;;;;;;4.88;2.33;;;;;;;20.25;65.94;99640.75;6274648;22;20486;-78
2022/09/13 08:57:43;;;;;;;7.03;2.60;;;;;;;20.38;66.31;99641.03;6161891;22;20075;-79
2022/09/13 09:00:35;;;;;;;5.93;3.00;;;;;;;20.52;65.33;99638.13;6247550;22;20444;-79
2022/09/13 09:03:09;;;;;;;6.32;1.98;;;;;;;20.54;65.60;99637.72;6248119;22;19995;-78
2022/09/13 09:05:46;;;;;;;4.45;1.98;;;;;;;20.55;65.31;99636.50;6277285;22;20421;-80
2022/09/13 09:08:38;;;;;;;7.43;2.47;;;;;;;20.56;65.46;99638.88;6277481;22;20007;-79
2022/09/13 09:11:13;;;;;;;6.15;2.65;;;;;;;20.61;65.25;99635.63;6277177;22;20014;-80
2022/09/13 09:13:52;;;;;;;5.13;2.47;;;;;;;20.55;65.39;99634.53;6277470;22;20007;-80
2022/09/13 09:16:41;;;;;;;7.35;2.58;;;;;;;20.63;66.05;99637.97;6277551;22;20000;-80
2022/09/13 09:19:24;;;;;;;7.43;2.45;;;;;;;20.68;66.01;99629.25;6277147;22;19999;-80
2022/09/13 09:21:50;;;;;;;4.32;2.28;;;;;;;20.83;65.29;99627.09;6277421;22;19992;-78
2022/09/13 09:24:24;;;;;;;4.35;2.25;;;;;;;21.04;64.95;99632.31;6249545;22;20015;-78
2022/09/13 09:26:49;;;;;;;5.70;2.13;;;;;;;21.16;64.65;99631.72;6276590;22;20441;-78
2022/09/13 09:29:20;;;;;;;5.05;2.40;;;;;;;21.20;63.73;99629.69;6249756;22;20053;-78
2022/09/13 09:32:19;;;;;;;5.13;2.40;;;;;;;21.20;64.01;99629.69;6277112;22;20054;-78
2022/09/13 09:35:11;;;;;;;6.63;2.50;;;;;;;21.20;64.07;99626.94;6276892;22;20421;-78
2022/09/13 09:37:40;;;;;;;4.88;2.20;;;;;;;21.23;64.22;99631.63;6249149;22;20022;-78
2022/09/13 09:40:11;;;;;;;5.90;2.60;;;;;;;21.27;64.01;99631.59;6303165;22;20076;-78
2022/09/13 09:42:43;;;;;;;5.72;2.42;;;;;;;21.44;62.87;99630.53;6307805;22;20110;-78
2022/09/13 09:45:26;;;;;;;6.00;2.38;;;;;;;21.39;63.62;99633.78;6307572;22;20030;-77
2022/09/13 09:47:53;;;;;;;6.05;2.53;;;;;;;21.51;63.54;99627.69;6307231;22;20342;-78
2022/09/13 09:50:22;;;;;;;5.30;2.47;;;;;;;21.53;63.56;99621.72;6307160;22;20451;-78
2022/09/13 09:53:13;;;;;;;5.72;2.63;;;;;;;21.34;64.00;99631.50;6307518;22;20313;-79
2022/09/13 09:55:46;;;;;;;5.50;2.53;;;;;;;21.41;63.84;99630.59;6279917;22;20045;-79
2022/09/13 09:58:15;;;;;;;4.63;2.38;;;;;;;21.42;64.01;99624.66;6279921;22;20344;-78
2022/09/13 10:00:56;;;;;;;7.80;2.63;;;;;;;21.41;64.56;99623.06;6307659;22;20003;-78
2022/09/13 10:03:29;;;;;;;5.35;2.47;;;;;;;21.56;64.05;99616.09;6307571;22;19991;-77
2022/09/13 10:06:17;;;;;;;5.47;2.30;;;;;;;21.77;62.62;99619.72;6307180;22;20022;-77
2022/09/13 10:08:58;;;;;;;6.68;2.33;;;;;;;21.72;61.73;99629.31;6280136;22;20010;-77
2022/09/13 10:11:38;;;;;;;5.70;2.42;;;;;;;21.78;62.40;99627.59;6307450;22;20378;-78
2022/09/13 10:14:03;;;;;;;7.00;2.90;;;;;;;21.83;61.73;99624.34;6279488;22;20444;-78
2022/09/13 10:16:30;;;;;;;7.00;2.50;;;;;;;22.08;61.46;99623.16;6279859;22;20014;-78
2022/09/13 10:19:21;;;;;;;5.43;2.53;;;;;;;22.26;61.65;99620.81;6307073;22;20003;-78
2022/09/13 10:21:59;;;;;;;5.53;2.58;;;;;;;22.30;60.95;99617.97;6307026;22;20344;-77
2022/09/13 10:24:27;;;;;;;9.05;2.95;;;;;;;22.26;60.88;99614.50;6279489;22;20087;-77
2022/09/13 10:26:52;;;;;;;6.20;2.60;;;;;;;22.26;61.00;99618.06;6307741;22;20056;-77
2022/09/13 10:29:18;;;;;;;6.38;2.67;;;;;;;22.27;61.81;99614.06;6307738;22;20070;-78
2022/09/13 10:31:48;;;;;;;4.53;2.30;;;;;;;22.23;61.09;99618.13;6307177;22;20442;-78
2022/09/13 10:34:35;;;;;;;12.32;3.78;;;;;;;22.32;60.52;99619.09;6307533;22;20022;-77
2022/09/13 10:37:10;;;;;;;7.05;3.13;;;;;;;22.32;61.14;99621.09;6307245;22;20012;-77
2022/09/13 10:39:36;;;;;;;7.80;2.97;;;;;;;22.30;60.70;99617.97;6307119;22;20010;-78
2022/09/13 10:42:05;;;;;;;5.57;2.97;;;;;;;22.34;60.49;99616.72;6307735;22;20076;-77
2022/09/13 10:44:40;;;;;;;6.70;3.33;;;;;;;22.52;61.04;99627.47;6306815;22;19999;-78
2022/09/13 10:47:13;;;;;;;4.82;2.30;;;;;;;22.81;59.75;99614.53;6307227;22;20391;-77
2022/09/13 10:49:51;;;;;;;6.47;2.80;;;;;;;22.83;59.67;99616.91;6306417;22;20084;-77
2022/09/13 10:52:45;;;;;;;5.32;2.35;;;;;;;22.70;60.14;99614.00;6279708;22;20006;-77
2022/09/13 10:55:19;;;;;;;7.45;2.20;;;;;;;22.71;60.90;99612.78;6306833;22;20015;-78
2022/09/13 10:57:46;;;;;;;6.97;2.80;;;;;;;22.49;60.18;99615.19;6306721;22;20003;-78
2022/09/13 11:00:16;;;;;;;5.00;2.30;;;;;;;22.46;60.82;99615.28;6307147;22;19999;-78
2022/09/13 11:03:05;;;;;;;4.43;1.95;;;;;;;22.71;59.63;99615.56;6279907;22;20025;-77
2022/09/13 11:05:52;;;;;;;4.47;1.92;;;;;;;23.15;59.22;99607.06;6308290;22;20003;-77
2022/09/13 11:08:39;;;;;;;5.85;2.63;;;;;;;23.47;56.19;99600.75;6308299;22;20010;-77
2022/09/13 11:11:18;;;;;;;6.63;2.90;;;;;;;23.28;57.21;99607.97;6307409;22;20002;-78
2022/09/13 11:13:55;;;;;;;5.43;2.70;;;;;;;23.08;57.30;99605.25;6279513;22;20464;-77
2022/09/13 11:16:57;;;;;;;8.02;2.33;;;;;;;23.31;57.79;99598.75;6279626;22;20003;-77
2022/09/13 11:19:51;;;;;;;7.05;3.13;;;;;;;23.35;56.22;99586.38;6307599;22;20007;-77
2022/09/13 11:22:29;;;;;;;5.22;2.25;;;;;;;23.42;56.91;99590.94;6306806;22;20376;-77
2022/09/13 11:25:23;;;;;;;6.13;2.58;;;;;;;23.31;57.08;99587.63;6307167;22;20130;-77
2022/09/13 11:28:22;;;;;;;5.30;2.58;;;;;;;23.11;56.64;99579.38;6279539;22;20014;-78
2022/09/13 11:31:25;;;;;;;4.72;1.98;;;;;;;23.73;56.07;99576.72;6279468;22;20086;-77
2022/09/13 11:34:08;;;;;;;5.78;2.40;;;;;;;23.95;55.95;99581.25;6306698;22;19996;-78
2022/09/13 11:36:41;;;;;;;4.82;2.15;;;;;;;23.96;56.00;99584.81;6279047;22;20015;-78
2022/09/13 11:39:29;;;;;;;6.15;2.35;;;;;;;24.11;54.97;99583.22;6306606;22;20007;-78
2022/09/13 11:42:19;;;;;;;8.10;2.40;;;;;;;23.79;56.15;99574.97;6290028;22;20487;-78
2022/09/13 11:45:14;;;;;;;5.80;2.38;;;;;;;23.87;55.75;99577.13;6279361;22;20007;-79
2022/09/13 11:47:47;;;;;;;6.25;2.60;;;;;;;23.98;55.58;99566.47;6306738;22;20070;-78
2022/09/13 11:50:21;;;;;;;8.00;2.63;;;;;;;24.01;55.26;99564.81;6279173;22;20031;-79
2022/09/13 11:52:55;;;;;;;6.00;2.63;;;;;;;24.24;55.47;99563.78;6306670;22;20129;-77
2022/09/13 11:55:39;;;;;;;4.80;2.33;;;;;;;24.24;55.75;99556.22;6306756;22;20390;-77
2022/09/13 11:58:12;;;;;;;5.68;2.10;;;;;;;24.28;55.22;99562.47;6279262;22;20007;-77
2022/09/13 12:00:47;;;;;;;6.60;3.40;;;;;;;24.43;54.44;99557.31;6306645;22;20031;-76
2022/09/13 12:03:21;;;;;;;8.15;2.85;;;;;;;24.50;54.00;99551.50;6305819;22;20010;-77
2022/09/13 12:06:10;;;;;;;6.82;2.63;;;;;;;24.34;54.38;99559.94;6278981;22;20007;-77
2022/09/13 12:08:46;;;;;;;7.22;2.25;;;;;;;25.06;52.78;99542.66;6282864;22;20009;-78
2022/09/13 12:11:18;;;;;;;6.93;3.00;;;;;;;25.02;52.42;99544.00;6269905;22;20503;-77
2022/09/13 12:13:51;;;;;;;7.05;2.67;;;;;;;24.87;52.98;99540.88;6278810;22;20011;-78
2022/09/13 12:16:24;;;;;;;6.20;3.10;;;;;;;24.83;53.35;99549.31;6306765;22;20006;-78
2022/09/13 12:18:54;;;;;;;5.00;2.28;;;;;;;24.72;54.52;99551.66;6306196;22;20007;-78
2022/09/13 12:21:24;;;;;;;5.57;2.60;;;;;;;25.10;54.56;99534.19;6278842;22;20003;-78
2022/09/13 12:24:01;;;;;;;5.13;2.15;;;;;;;25.35;53.92;99536.16;6278960;22;20003;-77
2022/09/13 12:26:40;;;;;;;5.70;2.67;;;;;;;24.92;54.30;99537.53;6306344;22;20315;-77
2022/09/13 12:29:21;;;;;;;6.43;2.72;;;;;;;24.95;54.31;99531.06;6306749;22;19999;-77
2022/09/13 12:31:48;;;;;;;7.03;2.72;;;;;;;25.61;52.48;99525.72;6253279;22;20403;-78
2022/09/13 12:34:24;;;;;;;7.13;2.67;;;;;;;25.24;53.75;99530.16;6306314;22;20003;-77
2022/09/13 12:37:08;;;;;;;;;;;;;;;24.92;52.77;99520.03;6306222;22;20023;-78
2022/09/13 12:39:34;;;;;;;6.43;2.33;;;;;;;25.15;52.81;99519.69;6305905;22;19982;-78